Time;durP1;ratioP1;P1;durP2;ratioP2;P2;SDS_P1;SDS_P2;PMS_P1;PMS_P2;Temp;Humidity;BMP_temperature;BMP_pressure;BME280_temperature;BME280_humidity;BME280_pressure;Samples;Min_cycle;Max_cycle;Signal;HPM_P1;HPM_P2
2022/08/23 00:01:57;;;;;;;8.68;3.42;;;17.70;99.90;;;;;;5115493;27;20536;-71
2022/08/23 00:04:31;;;;;;;7.88;3.63;;;17.70;99.90;;;;;;5082161;28;20040;-71
2022/08/23 00:06:58;;;;;;;8.90;3.25;;;17.70;99.90;;;;;;5082493;28;20126;-71
2022/08/23 00:09:25;;;;;;;9.27;3.58;;;17.70;99.90;;;;;;5082677;28;20560;-71
2022/08/23 00:11:54;;;;;;;9.38;3.80;;;17.60;99.90;;;;;;5082315;28;20040;-71
2022/08/23 00:14:22;;;;;;;11.48;3.30;;;17.60;99.90;;;;;;5082700;28;20040;-71
2022/08/23 00:16:48;;;;;;;10.40;3.60;;;17.50;99.90;;;;;;5056348;28;20075;-71
2022/08/23 00:19:16;;;;;;;8.30;3.50;;;17.50;99.90;;;;;;5064973;28;20059;-71
2022/08/23 00:21:43;;;;;;;8.40;3.47;;;17.50;99.90;;;;;;5065029;28;20048;-72
2022/08/23 00:24:11;;;;;;;8.30;3.70;;;17.50;99.90;;;;;;5081702;28;20032;-71
2022/08/23 00:26:57;;;;;;;8.20;3.33;;;17.40;99.90;;;;;;5083121;28;20058;-71
2022/08/23 00:29:26;;;;;;;8.05;3.55;;;17.40;99.90;;;;;;5081257;28;20062;-71
2022/08/23 00:31:52;;;;;;;7.78;3.30;;;17.40;99.90;;;;;;5082214;28;20072;-72
2022/08/23 00:34:19;;;;;;;10.93;3.80;;;17.30;99.90;;;;;;5065556;28;20079;-71
2022/08/23 00:36:46;;;;;;;10.07;3.75;;;17.30;99.90;;;;;;5080737;28;20055;-70
2022/08/23 00:39:16;;;;;;;7.95;3.50;;;17.30;99.90;;;;;;5081341;28;20044;-71
2022/08/23 00:41:43;;;;;;;9.30;3.50;;;17.30;99.90;;;;;;5079831;28;20512;-71
2022/08/23 00:50:14;;;;;;;8.45;3.70;;;17.20;99.90;;;;;;5102469;27;20051;-71
2022/08/23 00:52:51;;;;;;;7.05;3.50;;;17.20;99.90;;;;;;5101098;28;20043;-72
2022/08/23 00:55:19;;;;;;;8.07;3.55;;;17.10;99.90;;;;;;5134567;27;20051;-72
2022/08/23 00:57:46;;;;;;;7.35;3.50;;;17.00;99.90;;;;;;5102246;28;20114;-71
2022/08/23 01:00:13;;;;;;;9.52;3.60;;;17.00;99.90;;;;;;5102439;28;20062;-71
2022/08/23 01:02:41;;;;;;;10.20;3.47;;;17.00;99.90;;;;;;5134167;27;20157;-71
2022/08/23 01:05:07;;;;;;;7.63;3.50;;;17.00;99.90;;;;;;5100960;28;20053;-71
2022/08/23 01:07:36;;;;;;;7.65;3.60;;;17.00;99.90;;;;;;5102687;28;20566;-71
2022/08/23 01:10:10;;;;;;;7.82;3.70;;;16.90;99.90;;;;;;5100378;28;20051;-71
2022/08/23 01:12:41;;;;;;;8.05;3.65;;;16.90;99.90;;;;;;5101350;28;20102;-71
2022/08/23 01:15:23;;;;;;;8.10;3.58;;;16.90;99.90;;;;;;5112488;27;20039;-71
2022/08/23 01:18:08;;;;;;;7.65;3.25;;;16.90;99.90;;;;;;5083139;28;20553;-72
2022/08/23 01:20:50;;;;;;;9.25;3.80;;;16.90;99.90;;;;;;5102465;28;20585;-71
2022/08/23 01:23:41;;;;;;;7.97;3.80;;;16.80;99.90;;;;;;5133726;27;20031;-71
2022/08/23 01:26:07;;;;;;;9.23;3.63;;;16.80;99.90;;;;;;5099516;28;20070;-71
2022/08/23 01:28:34;;;;;;;8.15;4.13;;;16.80;99.90;;;;;;5100136;28;20058;-71
2022/08/23 01:31:00;;;;;;;7.57;3.83;;;16.70;99.90;;;;;;5095943;27;20061;-71
2022/08/23 01:33:27;;;;;;;6.70;3.45;;;16.70;99.90;;;;;;5107925;28;20118;-71
2022/08/23 01:35:55;;;;;;;7.57;3.90;;;16.70;99.90;;;;;;5104182;28;20535;-71
2022/08/23 01:38:22;;;;;;;8.70;4.18;;;16.60;99.90;;;;;;5102707;28;21031;-71
2022/08/23 01:40:49;;;;;;;10.23;4.10;;;16.60;99.90;;;;;;5134424;27;20129;-71
2022/08/23 01:43:18;;;;;;;7.20;3.58;;;16.60;99.90;;;;;;5107356;27;20043;-71
2022/08/23 01:45:45;;;;;;;7.93;4.30;;;16.40;99.90;;;;;;5136852;27;20070;-71
2022/08/23 01:48:13;;;;;;;7.72;3.95;;;16.50;99.90;;;;;;5123449;27;20953;-71
2022/08/23 01:50:38;;;;;;;11.02;4.05;;;16.50;99.90;;;;;;5138016;27;20518;-71
2022/08/23 01:53:04;;;;;;;6.97;3.60;;;16.50;99.90;;;;;;5135174;27;20042;-71
2022/08/23 01:55:31;;;;;;;7.28;3.30;;;16.40;99.90;;;;;;5103954;27;20438;-71
2022/08/23 01:58:01;;;;;;;7.03;3.22;;;16.40;99.90;;;;;;5107386;27;20072;-71
2022/08/23 02:00:34;;;;;;;6.88;3.60;;;16.40;99.90;;;;;;5136689;27;20051;-71
2022/08/23 02:03:01;;;;;;;9.82;3.92;;;16.40;99.90;;;;;;5095136;27;20046;-71
2022/08/23 02:05:27;;;;;;;7.97;4.22;;;16.40;99.90;;;;;;5109232;27;20082;-71
2022/08/23 02:07:53;;;;;;;6.72;3.67;;;16.30;99.90;;;;;;5109262;27;20069;-71
2022/08/23 02:10:19;;;;;;;8.32;4.10;;;16.30;99.90;;;;;;5139732;27;20038;-71
2022/08/23 02:12:46;;;;;;;8.32;3.88;;;16.30;99.90;;;;;;5139926;27;20063;-72
2022/08/23 02:15:13;;;;;;;7.50;4.22;;;16.30;99.90;;;;;;5111077;27;20076;-71
2022/08/23 02:17:39;;;;;;;9.07;3.70;;;16.20;99.90;;;;;;5108557;27;20043;-71
2022/08/23 02:20:07;;;;;;;8.70;3.83;;;16.20;99.90;;;;;;5110160;27;20099;-71
2022/08/23 02:22:33;;;;;;;9.90;4.10;;;16.30;99.90;;;;;;5108983;27;20038;-71
2022/08/23 02:24:59;;;;;;;7.78;3.90;;;16.20;99.90;;;;;;5089514;27;20705;-71
2022/08/23 02:27:25;;;;;;;7.55;3.67;;;16.20;99.90;;;;;;5126077;27;20036;-71
2022/08/23 02:29:50;;;;;;;7.78;3.53;;;16.20;99.90;;;;;;5108539;27;20385;-70
2022/08/23 02:32:17;;;;;;;9.27;4.18;;;16.20;99.90;;;;;;5108797;27;20118;-71
2022/08/23 02:34:44;;;;;;;7.47;3.95;;;16.10;99.90;;;;;;5126660;27;20518;-71
2022/08/23 02:37:12;;;;;;;7.22;3.72;;;16.20;99.90;;;;;;5126425;27;20121;-71
2022/08/23 02:39:38;;;;;;;7.78;3.80;;;16.10;99.90;;;;;;5103372;27;20054;-70
2022/08/23 02:42:04;;;;;;;7.20;3.78;;;16.10;99.90;;;;;;5122534;27;20119;-70
2022/08/23 02:44:33;;;;;;;6.88;3.58;;;16.10;99.90;;;;;;5133778;27;20092;-71
2022/08/23 02:47:01;;;;;;;7.65;3.47;;;16.00;99.90;;;;;;5103888;27;20436;-70
2022/08/23 02:49:27;;;;;;;5.88;3.25;;;16.10;99.90;;;;;;5103984;27;20050;-70
2022/08/23 02:51:53;;;;;;;6.90;3.58;;;16.00;99.90;;;;;;5100828;27;20535;-70
2022/08/23 02:54:19;;;;;;;6.38;3.35;;;16.10;99.90;;;;;;5103553;27;20045;-70
2022/08/23 02:56:45;;;;;;;8.00;3.35;;;16.00;99.90;;;;;;5122445;27;20054;-70
2022/08/23 02:59:12;;;;;;;6.72;3.55;;;16.00;99.90;;;;;;5120170;27;20113;-70
2022/08/23 03:01:39;;;;;;;6.82;3.58;;;16.00;99.90;;;;;;5121237;27;20051;-71
2022/08/23 03:04:07;;;;;;;10.02;4.10;;;15.90;99.90;;;;;;5101650;27;20050;-70
2022/08/23 03:06:33;;;;;;;7.22;3.78;;;15.90;99.90;;;;;;5079049;27;20055;-70
2022/08/23 03:08:59;;;;;;;7.00;3.83;;;15.90;99.90;;;;;;5095431;27;20047;-70
2022/08/23 03:11:25;;;;;;;8.10;3.80;;;15.90;99.90;;;;;;5080824;27;20043;-70
2022/08/23 03:13:52;;;;;;;8.23;3.85;;;15.90;99.90;;;;;;5131152;27;20043;-70
2022/08/23 03:16:18;;;;;;;7.35;4.00;;;15.90;99.90;;;;;;5120556;27;20403;-71
2022/08/23 03:18:44;;;;;;;8.73;4.85;;;15.90;99.90;;;;;;5133196;27;20043;-71
2022/08/23 03:21:11;;;;;;;10.63;5.45;;;15.80;99.90;;;;;;5120351;27;20042;-71
2022/08/23 03:23:38;;;;;;;10.55;4.90;;;15.90;99.90;;;;;;5122272;27;20039;-70
2022/08/23 03:26:05;;;;;;;11.48;5.45;;;15.90;99.90;;;;;;5134176;27;20039;-70
2022/08/23 03:28:32;;;;;;;10.25;4.85;;;15.90;99.90;;;;;;5103693;27;20116;-70
2022/08/23 03:30:58;;;;;;;6.70;4.57;;;15.90;99.90;;;;;;5089129;27;20039;-70
2022/08/23 03:33:24;;;;;;;8.43;4.90;;;15.90;99.90;;;;;;5109809;27;20053;-71
2022/08/23 03:35:49;;;;;;;9.75;4.97;;;15.90;99.90;;;;;;5110096;27;20038;-71
2022/08/23 03:38:15;;;;;;;10.05;5.20;;;15.80;99.90;;;;;;5126416;27;20095;-71
2022/08/23 03:40:42;;;;;;;12.52;5.78;;;15.90;99.90;;;;;;5105629;27;20075;-70
2022/08/23 03:43:08;;;;;;;11.70;6.90;;;15.80;99.90;;;;;;5122528;27;20050;-71
2022/08/23 03:45:34;;;;;;;12.95;7.15;;;15.90;99.90;;;;;;5140245;27;20055;-70
2022/08/23 03:48:00;;;;;;;9.73;5.85;;;15.80;99.90;;;;;;5101418;27;20042;-70
2022/08/23 03:50:25;;;;;;;11.38;5.47;;;15.90;99.90;;;;;;5106265;27;20043;-70
2022/08/23 03:52:51;;;;;;;11.90;5.72;;;15.80;99.90;;;;;;5096246;27;20507;-71
2022/08/23 03:55:17;;;;;;;9.55;6.75;;;15.80;99.90;;;;;;5116013;27;20126;-71
2022/08/23 03:57:43;;;;;;;9.18;6.30;;;15.80;99.90;;;;;;5111265;27;20434;-71
2022/08/23 04:00:13;;;;;;;12.93;7.72;;;15.80;99.90;;;;;;5111168;27;20046;-71
2022/08/23 04:02:39;;;;;;;12.35;8.27;;;15.80;99.90;;;;;;5110343;27;20054;-70
2022/08/23 04:05:07;;;;;;;13.07;8.05;;;15.80;99.90;;;;;;5130559;27;20140;-71
2022/08/23 04:07:34;;;;;;;12.07;7.85;;;15.80;99.90;;;;;;5091659;27;20444;-71
2022/08/23 04:10:03;;;;;;;14.65;10.52;;;15.80;99.90;;;;;;5110528;27;20039;-71
2022/08/23 04:12:28;;;;;;;13.93;8.85;;;15.80;99.90;;;;;;5114012;27;20051;-71
2022/08/23 04:14:54;;;;;;;14.45;8.93;;;15.90;99.90;;;;;;5134277;27;20104;-71
2022/08/23 04:17:20;;;;;;;16.17;9.27;;;15.90;99.90;;;;;;5126373;27;20483;-71
2022/08/23 04:19:46;;;;;;;15.45;8.90;;;15.80;99.90;;;;;;5132239;27;20031;-71
2022/08/23 04:22:15;;;;;;;12.20;8.32;;;15.80;99.90;;;;;;5121718;27;20031;-71
2022/08/23 04:24:42;;;;;;;14.32;8.23;;;15.80;99.90;;;;;;5110371;27;20550;-71
2022/08/23 04:27:09;;;;;;;15.30;9.57;;;15.80;99.90;;;;;;5106826;27;20042;-71
2022/08/23 04:29:36;;;;;;;10.73;7.90;;;15.80;99.90;;;;;;5110782;27;21121;-71
2022/08/23 04:32:02;;;;;;;13.13;9.63;;;15.80;99.90;;;;;;5131360;27;20046;-71
2022/08/23 04:34:28;;;;;;;15.35;9.48;;;15.80;99.90;;;;;;5112064;27;20031;-71
2022/08/23 04:36:54;;;;;;;14.77;9.30;;;15.80;99.90;;;;;;5108747;27;20051;-71
2022/08/23 04:39:19;;;;;;;14.13;9.40;;;15.80;99.90;;;;;;5128463;27;20041;-71
2022/08/23 04:44:29;;;;;;;12.60;8.25;;;15.80;99.90;;;;;;5126642;27;20467;-71
2022/08/23 04:46:55;;;;;;;14.57;8.75;;;15.80;99.90;;;;;;5112348;27;20118;-71
2022/08/23 04:49:22;;;;;;;13.15;8.68;;;15.80;99.90;;;;;;5103578;27;20690;-71
2022/08/23 04:51:48;;;;;;;13.10;10.15;;;15.70;99.90;;;;;;5121325;27;20066;-71
2022/08/23 04:54:14;;;;;;;12.00;7.68;;;15.80;99.90;;;;;;5085164;27;20043;-71
2022/08/23 04:56:41;;;;;;;14.52;10.23;;;15.80;99.90;;;;;;5136930;27;20046;-71
2022/08/23 04:59:07;;;;;;;12.55;9.43;;;15.80;99.90;;;;;;5103630;27;20043;-70
2022/08/23 05:01:34;;;;;;;13.55;9.02;;;15.80;99.90;;;;;;5109767;27;20047;-71
2022/08/23 05:04:01;;;;;;;13.55;9.43;;;15.80;99.90;;;;;;5143061;27;20039;-70
2022/08/23 05:06:28;;;;;;;14.65;10.15;;;15.80;99.90;;;;;;5106599;27;20133;-71
2022/08/23 05:08:54;;;;;;;14.07;9.35;;;15.80;99.90;;;;;;5106492;27;20035;-71
2022/08/23 05:11:20;;;;;;;14.75;9.82;;;15.80;99.90;;;;;;5126085;27;20031;-70
2022/08/23 05:13:46;;;;;;;15.10;10.38;;;15.80;99.90;;;;;;5124466;27;20046;-70
2022/08/23 05:16:12;;;;;;;12.52;9.77;;;15.80;99.90;;;;;;5091786;27;20422;-70
2022/08/23 05:18:39;;;;;;;12.77;9.63;;;15.90;99.90;;;;;;5104102;27;20047;-70
2022/08/23 05:21:05;;;;;;;15.80;11.90;;;15.90;99.90;;;;;;5127038;27;20104;-70
2022/08/23 05:23:31;;;;;;;21.35;13.32;;;15.90;99.90;;;;;;5104695;27;20118;-71
2022/08/23 05:25:57;;;;;;;20.05;12.70;;;15.90;99.90;;;;;;5108434;27;20043;-71
2022/08/23 05:28:29;;;;;;;13.48;10.48;;;16.00;99.90;;;;;;5106117;27;20039;-70
2022/08/23 05:31:02;;;;;;;16.10;11.18;;;16.10;99.90;;;;;;5122474;27;20063;-71
2022/08/23 05:33:29;;;;;;;16.42;10.82;;;16.30;99.90;;;;;;5124083;27;20039;-71
2022/08/23 05:35:55;;;;;;;14.35;10.65;;;16.40;99.90;;;;;;5106772;27;20126;-71
2022/08/23 05:38:22;;;;;;;19.83;12.50;;;16.50;99.90;;;;;;5086190;27;20188;-70
2022/08/23 05:40:50;;;;;;;16.10;10.30;;;16.60;99.90;;;;;;5103249;27;20131;-71
2022/08/23 05:43:16;;;;;;;18.50;11.20;;;16.60;99.90;;;;;;5110514;27;20750;-70
2022/08/23 05:45:42;;;;;;;18.73;12.10;;;16.60;99.90;;;;;;5109365;27;20058;-71
2022/08/23 05:48:08;;;;;;;19.80;13.20;;;16.60;99.90;;;;;;5103344;27;20046;-70
2022/08/23 05:50:37;;;;;;;17.08;11.45;;;16.60;99.90;;;;;;5128310;27;20043;-71
2022/08/23 05:53:03;;;;;;;19.63;14.07;;;16.50;99.90;;;;;;5093430;27;20039;-70
2022/08/23 05:55:29;;;;;;;14.80;11.93;;;16.60;99.90;;;;;;5129199;27;20043;-71
2022/08/23 05:57:55;;;;;;;17.75;13.23;;;16.60;99.90;;;;;;5128282;27;20042;-71
2022/08/23 06:00:21;;;;;;;16.95;12.55;;;16.60;99.90;;;;;;5121902;27;20039;-71
2022/08/23 06:02:48;;;;;;;19.05;12.93;;;16.60;99.90;;;;;;5107022;27;20080;-71
2022/08/23 06:05:15;;;;;;;17.70;12.00;;;16.60;99.90;;;;;;5101652;27;20388;-72
2022/08/23 06:07:41;;;;;;;16.40;12.38;;;16.60;99.90;;;;;;5102114;27;20051;-71
2022/08/23 06:10:08;;;;;;;15.82;12.60;;;16.60;99.90;;;;;;5107319;27;20117;-72
2022/08/23 06:12:34;;;;;;;18.35;14.25;;;16.60;99.90;;;;;;5125258;27;20100;-72
2022/08/23 06:15:01;;;;;;;18.48;14.40;;;16.70;99.90;;;;;;5111493;27;20050;-72
2022/08/23 06:17:27;;;;;;;18.35;13.35;;;16.70;99.90;;;;;;5107794;27;20055;-72
2022/08/23 06:19:53;;;;;;;18.25;14.32;;;16.70;99.90;;;;;;5129013;27;20407;-71
2022/08/23 06:22:19;;;;;;;17.55;13.95;;;16.70;99.90;;;;;;5087739;27;20046;-73
2022/08/23 06:24:45;;;;;;;18.17;12.93;;;16.70;99.90;;;;;;5108002;27;20440;-71
2022/08/23 06:27:11;;;;;;;18.85;14.23;;;16.80;99.90;;;;;;5119661;27;20524;-71
2022/08/23 06:29:38;;;;;;;20.42;15.15;;;16.90;99.90;;;;;;5099546;27;20047;-69
2022/08/23 06:32:04;;;;;;;18.75;13.55;;;16.80;99.90;;;;;;5103366;27;20121;-73
2022/08/23 06:34:33;;;;;;;18.60;13.55;;;16.90;99.90;;;;;;5088200;27;20080;-68
2022/08/23 06:37:02;;;;;;;17.30;13.52;;;16.90;99.90;;;;;;5115916;27;20047;-70
2022/08/23 06:39:30;;;;;;;17.80;13.07;;;17.00;99.90;;;;;;5116818;27;20043;-72
2022/08/23 06:42:10;;;;;;;15.20;12.90;;;17.10;99.90;;;;;;5119978;27;20040;-69
2022/08/23 06:44:37;;;;;;;17.88;14.50;;;17.10;99.90;;;;;;5095290;27;20047;-70
2022/08/23 06:47:04;;;;;;;17.50;13.25;;;17.30;99.90;;;;;;5112674;27;20046;-70
2022/08/23 06:49:30;;;;;;;15.55;13.30;;;17.30;99.90;;;;;;5111492;27;20122;-67
2022/08/23 06:52:03;;;;;;;15.63;13.02;;;17.40;99.90;;;;;;5119363;27;20096;-67
2022/08/23 06:54:32;;;;;;;17.63;13.25;;;17.50;99.90;;;;;;5109964;27;20055;-68
2022/08/23 06:56:59;;;;;;;17.98;13.90;;;17.50;99.90;;;;;;5108554;27;20126;-67
2022/08/23 06:59:26;;;;;;;17.73;12.88;;;17.60;99.90;;;;;;5111647;27;20043;-67
2022/08/23 07:01:57;;;;;;;18.67;12.82;;;17.60;99.90;;;;;;5122122;27;20511;-68
2022/08/23 07:04:36;;;;;;;14.93;12.43;;;17.70;99.90;;;;;;5119510;27;20530;-68
2022/08/23 07:07:03;;;;;;;16.55;11.63;;;17.70;99.90;;;;;;5077416;27;20047;-67
2022/08/23 07:09:30;;;;;;;17.80;11.13;;;17.80;99.90;;;;;;5104038;27;20391;-67
2022/08/23 07:11:57;;;;;;;17.92;11.63;;;17.80;99.90;;;;;;5101109;27;20806;-67
2022/08/23 07:14:24;;;;;;;15.70;11.35;;;17.90;99.90;;;;;;5105261;27;20031;-67
2022/08/23 07:16:58;;;;;;;13.98;9.98;;;17.90;99.90;;;;;;5089719;27;20031;-67
2022/08/23 07:19:26;;;;;;;17.48;10.45;;;18.00;99.90;;;;;;5130446;27;20082;-67
2022/08/23 07:21:52;;;;;;;12.63;9.20;;;18.10;99.90;;;;;;5102254;27;20032;-67
2022/08/23 07:24:21;;;;;;;15.70;9.65;;;18.20;99.90;;;;;;5119529;27;20048;-67
2022/08/23 07:26:48;;;;;;;15.65;8.52;;;18.30;99.90;;;;;;5085954;27;20039;-67
2022/08/23 07:29:16;;;;;;;14.10;8.02;;;18.40;99.90;;;;;;5139912;27;20133;-67
2022/08/23 07:31:45;;;;;;;13.93;8.45;;;18.60;99.90;;;;;;5120876;27;20855;-67
2022/08/23 07:34:11;;;;;;;10.60;7.70;;;18.80;99.90;;;;;;5131539;27;20047;-68
2022/08/23 07:36:39;;;;;;;11.60;7.03;;;19.00;99.90;;;;;;5113880;27;20059;-67
2022/08/23 07:39:06;;;;;;;13.57;8.35;;;19.20;99.90;;;;;;5117704;27;20051;-67
2022/08/23 07:41:33;;;;;;;13.88;8.18;;;19.40;99.90;;;;;;5105173;27;20051;-67
2022/08/23 07:44:01;;;;;;;11.30;7.30;;;19.50;99.90;;;;;;5092801;27;20079;-67
2022/08/23 07:46:28;;;;;;;14.57;7.60;;;19.70;99.90;;;;;;5095991;27;20043;-67
2022/08/23 07:48:57;;;;;;;12.38;7.38;;;19.90;99.90;;;;;;5069034;28;20046;-67
2022/08/23 07:51:24;;;;;;;12.27;6.60;;;20.00;99.90;;;;;;5085269;28;20072;-67
2022/08/23 07:53:50;;;;;;;13.35;6.72;;;20.20;99.90;;;;;;5083825;28;20374;-67
2022/08/23 07:56:17;;;;;;;12.00;6.47;;;20.30;99.90;;;;;;5085495;28;20409;-67
2022/08/23 07:58:43;;;;;;;11.38;6.97;;;20.50;99.90;;;;;;5086021;28;20043;-67
2022/08/23 08:01:14;;;;;;;12.30;6.00;;;20.70;99.90;;;;;;5081753;28;20116;-67
2022/08/23 08:03:42;;;;;;;10.25;5.45;;;20.80;99.90;;;;;;5078545;28;20114;-67
2022/08/23 08:06:18;;;;;;;11.45;5.68;;;21.00;99.90;;;;;;5079019;28;20036;-67
2022/08/23 08:08:43;;;;;;;10.63;5.72;;;21.20;99.90;;;;;;5064812;28;20531;-67
2022/08/23 08:11:11;;;;;;;11.18;5.35;;;21.30;99.90;;;;;;5068300;28;20119;-67
2022/08/23 08:13:39;;;;;;;9.63;4.70;;;21.40;99.90;;;;;;5084926;28;20083;-67
2022/08/23 08:16:06;;;;;;;8.30;4.47;;;21.50;99.90;;;;;;5087148;28;20416;-67
2022/08/23 08:18:32;;;;;;;10.32;4.72;;;21.70;99.90;;;;;;5084514;28;20052;-67
2022/08/23 08:20:57;;;;;;;11.00;4.38;;;21.90;99.90;;;;;;5084602;28;20459;-67
2022/08/23 08:23:23;;;;;;;6.53;3.42;;;22.00;99.90;;;;;;5082412;28;20036;-67
2022/08/23 08:26:00;;;;;;;7.57;3.60;;;22.10;99.90;;;;;;5087752;28;20044;-66
2022/08/23 08:28:26;;;;;;;9.90;3.58;;;22.30;99.90;;;;;;5083279;28;20424;-67
2022/08/23 08:30:52;;;;;;;9.13;3.17;;;22.40;99.90;;;;;;5084137;28;20045;-67
2022/08/23 08:33:17;;;;;;;7.63;3.15;;;22.50;99.90;;;;;;5079137;28;20036;-68
2022/08/23 08:35:48;;;;;;;7.93;3.08;;;22.70;99.90;;;;;;5079192;28;20126;-67
2022/08/23 08:38:13;;;;;;;8.82;3.65;;;22.70;99.90;;;;;;5076706;28;20063;-66
2022/08/23 08:40:40;;;;;;;6.78;2.85;;;22.80;99.90;;;;;;5058785;28;20075;-67
2022/08/23 08:43:05;;;;;;;7.13;3.10;;;22.80;99.90;;;;;;5077457;27;20108;-67
2022/08/23 08:45:48;;;;;;;7.70;2.65;;;22.90;99.90;;;;;;5113082;27;20288;-66
2022/08/23 08:48:17;;;;;;;7.05;2.70;;;23.00;99.90;;;;;;5092570;27;20062;-67
2022/08/23 08:50:50;;;;;;;7.20;2.78;;;23.10;99.90;;;;;;5101661;27;20475;-66
2022/08/23 08:53:27;;;;;;;7.72;2.42;;;23.20;99.90;;;;;;5120397;27;20046;-66
2022/08/23 08:55:58;;;;;;;7.82;2.88;;;23.30;99.90;;;;;;5118478;27;20410;-67
2022/08/23 08:58:49;;;;;;;8.13;2.70;;;23.40;99.90;;;;;;5134117;27;20784;-67
2022/08/23 09:01:20;;;;;;;7.53;2.40;;;23.40;99.90;;;;;;5095908;27;20076;-67
2022/08/23 09:03:47;;;;;;;10.80;2.60;;;23.50;99.90;;;;;;5081184;27;20520;-67
2022/08/23 09:06:33;;;;;;;6.60;2.42;;;23.70;99.90;;;;;;5095140;27;20035;-67
2022/08/23 09:09:13;;;;;;;7.18;2.42;;;23.80;99.90;;;;;;5107563;27;20039;-67
2022/08/23 09:12:10;;;;;;;9.63;2.65;;;24.00;99.90;;;;;;5115655;27;20055;-67
2022/08/23 09:14:58;;;;;;;6.00;2.70;;;24.10;99.90;;;;;;5093800;27;20047;-66
2022/08/23 09:17:29;;;;;;;6.78;2.40;;;24.20;99.90;;;;;;5100877;27;20804;-66
2022/08/23 09:19:59;;;;;;;6.80;2.63;;;24.20;99.90;;;;;;5124541;27;20069;-67
2022/08/23 09:22:38;;;;;;;7.38;2.72;;;24.30;99.90;;;;;;5093081;27;20100;-67
2022/08/23 09:25:06;;;;;;;6.45;2.53;;;24.30;99.90;;;;;;5091501;27;20044;-67
2022/08/23 09:27:32;;;;;;;7.13;2.30;;;24.40;99.90;;;;;;5116279;27;20563;-67
2022/08/23 09:30:00;;;;;;;5.78;2.38;;;24.40;99.90;;;;;;5118439;27;20584;-67
2022/08/23 09:32:31;;;;;;;6.55;2.65;;;24.50;99.90;;;;;;5121434;27;20048;-67
2022/08/23 09:35:29;;;;;;;5.43;2.40;;;24.60;99.90;;;;;;5136433;27;20051;-67
2022/08/23 09:38:02;;;;;;;7.68;2.80;;;24.70;99.90;;;;;;5085981;27;20047;-67
2022/08/23 09:40:43;;;;;;;4.60;2.20;;;24.80;99.90;;;;;;5129483;27;20118;-67
2022/08/23 09:43:14;;;;;;;10.73;3.83;;;25.00;99.90;;;;;;5133454;27;20120;-67
2022/08/23 09:45:53;;;;;;;7.03;2.42;;;25.10;99.90;;;;;;5099812;28;20051;-66
2022/08/23 09:48:32;;;;;;;9.82;2.75;;;25.10;99.90;;;;;;5130445;27;20051;-66
2022/08/23 09:51:32;;;;;;;6.05;2.38;;;25.30;99.90;;;;;;5098230;28;20047;-66
2022/08/23 09:54:28;;;;;;;10.57;2.53;;;25.40;99.90;;;;;;5103386;28;20516;-66
2022/08/23 09:56:57;;;;;;;7.38;2.50;;;25.50;99.90;;;;;;5100603;27;20040;-66
2022/08/23 09:59:26;;;;;;;9.43;2.95;;;25.50;99.90;;;;;;5098952;28;20122;-66
2022/08/23 10:01:55;;;;;;;7.07;2.60;;;25.60;99.90;;;;;;5101616;28;20569;-66
2022/08/23 10:04:39;;;;;;;6.90;2.75;;;25.70;99.90;;;;;;5106410;28;20043;-66
2022/08/23 10:07:29;;;;;;;6.47;2.67;;;25.80;99.90;;;;;;5100964;28;20567;-66
2022/08/23 10:10:12;;;;;;;7.05;2.80;;;25.80;99.90;;;;;;5095003;27;20084;-67
2022/08/23 10:12:38;;;;;;;9.20;2.90;;;25.90;99.90;;;;;;5102819;28;20791;-67
2022/08/23 10:15:05;;;;;;;8.35;2.30;;;25.90;99.90;;;;;;5102270;27;20035;-67
2022/08/23 10:17:40;;;;;;;6.82;2.65;;;26.00;99.90;;;;;;5077497;28;20048;-67
2022/08/23 10:20:31;;;;;;;4.88;2.05;;;26.00;99.90;;;;;;5129649;27;20044;-67
2022/08/23 10:23:22;;;;;;;5.65;2.15;;;26.00;99.90;;;;;;5103929;28;20488;-67
2022/08/23 10:25:57;;;;;;;5.28;2.17;;;26.00;99.90;;;;;;5105265;28;20491;-67
2022/08/23 10:32:04;;;;;;;11.82;2.92;;;26.00;99.90;;;;;;5093157;28;20056;-66
2022/08/23 10:35:00;;;;;;;9.85;2.72;;;26.10;99.90;;;;;;5089930;28;20067;-67
2022/08/23 10:37:43;;;;;;;6.03;2.40;;;26.10;99.90;;;;;;5095273;27;20484;-68
2022/08/23 10:40:24;;;;;;;9.30;2.30;;;26.20;99.90;;;;;;5093952;28;20087;-67
2022/08/23 10:43:12;;;;;;;8.88;2.47;;;26.20;99.90;;;;;;5106158;27;20032;-67
2022/08/23 10:45:40;;;;;;;6.22;2.25;;;26.30;99.90;;;;;;5119526;27;20051;-68
2022/08/23 10:48:55;;;;;;;7.97;2.60;;;26.40;99.90;;;;;;5098721;27;20519;-68
2022/08/23 10:51:39;;;;;;;6.78;2.10;;;26.50;99.90;;;;;;5070461;27;20071;-67
2022/08/23 10:54:17;;;;;;;7.55;2.08;;;26.60;99.90;;;;;;5115207;27;20046;-67
2022/08/23 10:56:43;;;;;;;9.27;2.75;;;26.60;99.90;;;;;;5128275;27;20054;-67
2022/08/23 10:59:17;;;;;;;7.05;2.33;;;26.60;99.90;;;;;;5119198;27;20074;-67
2022/08/23 11:02:30;;;;;;;7.47;2.33;;;26.80;99.90;;;;;;5116422;27;20064;-67
2022/08/23 11:05:06;;;;;;;6.72;2.55;;;26.80;99.90;;;;;;5113175;27;20121;-68
2022/08/23 11:07:40;;;;;;;9.15;2.70;;;27.00;99.90;;;;;;5095885;27;20047;-68
2022/08/23 11:10:24;;;;;;;6.88;2.20;;;27.10;99.90;;;;;;5138278;27;20420;-68
2022/08/23 11:12:53;;;;;;;6.97;2.03;;;27.20;99.90;;;;;;5104355;27;20103;-68
2022/08/23 11:15:42;;;;;;;5.93;2.00;;;27.20;99.90;;;;;;5135733;27;20115;-67
2022/08/23 11:18:12;;;;;;;5.05;1.75;;;27.30;99.90;;;;;;5101114;27;20055;-67
2022/08/23 11:20:50;;;;;;;4.32;2.00;;;27.30;99.90;;;;;;5098709;27;20071;-67
2022/08/23 11:23:42;;;;;;;8.05;2.03;;;27.40;99.90;;;;;;5107229;27;20075;-68
2022/08/23 11:26:35;;;;;;;8.32;2.10;;;27.50;99.90;;;;;;5115922;27;20090;-68
2022/08/23 11:29:06;;;;;;;7.50;2.13;;;27.60;99.90;;;;;;5103210;27;20173;-67
2022/08/23 11:31:46;;;;;;;5.95;1.92;;;27.60;99.90;;;;;;5098181;27;20107;-67
2022/08/23 11:34:27;;;;;;;8.30;2.40;;;27.60;99.90;;;;;;5122304;27;20483;-68
2022/08/23 11:37:17;;;;;;;5.50;2.03;;;27.70;99.90;;;;;;5103720;27;20107;-65
2022/08/23 11:39:56;;;;;;;7.78;2.30;;;27.80;99.90;;;;;;5085902;27;20084;-67
2022/08/23 11:42:42;;;;;;;7.30;1.90;;;27.80;99.90;;;;;;5076877;27;20043;-66
2022/08/23 11:45:26;;;;;;;5.40;2.00;;;27.80;99.90;;;;;;5112801;27;20449;-66
2022/08/23 11:48:14;;;;;;;4.72;1.85;;;27.90;99.80;;;;;;5125088;27;20047;-67
2022/08/23 11:51:08;;;;;;;6.97;2.17;;;28.00;99.90;;;;;;5084002;27;20491;-66
2022/08/23 11:53:43;;;;;;;7.22;2.25;;;28.00;99.90;;;;;;5102329;27;20478;-66
2022/08/23 11:56:24;;;;;;;5.97;2.25;;;28.10;98.90;;;;;;5116640;27;20034;-67
2022/08/23 11:59:30;;;;;;;7.10;2.10;;;28.20;98.10;;;;;;5099694;27;20101;-67
2022/08/23 12:01:58;;;;;;;7.53;1.77;;;28.20;98.60;;;;;;5097234;27;20043;-67
2022/08/23 12:04:39;;;;;;;6.97;2.17;;;28.20;99.60;;;;;;5120274;27;20145;-68
2022/08/23 12:07:11;;;;;;;7.93;2.10;;;28.30;99.10;;;;;;5116975;27;20070;-67
2022/08/23 12:09:40;;;;;;;6.38;2.00;;;28.30;98.10;;;;;;5117910;27;20188;-67
2022/08/23 12:12:28;;;;;;;7.53;1.90;;;28.40;98.70;;;;;;5136783;27;20035;-67
2022/08/23 12:15:15;;;;;;;7.45;2.10;;;28.40;97.90;;;;;;5094847;27;20543;-67
2022/08/23 12:17:41;;;;;;;8.98;2.05;;;28.50;98.40;;;;;;5106889;27;20125;-67
2022/08/23 12:20:25;;;;;;;6.07;2.10;;;28.50;98.50;;;;;;5086170;27;20122;-67
2022/08/23 12:23:06;;;;;;;7.28;2.10;;;28.60;97.50;;;;;;5104101;27;20418;-67
2022/08/23 12:25:33;;;;;;;6.18;1.90;;;28.80;96.30;;;;;;5117156;27;20484;-67
2022/08/23 12:28:10;;;;;;;6.53;2.25;;;28.80;96.30;;;;;;5132488;27;20403;-67
2022/08/23 12:30:47;;;;;;;7.00;2.00;;;28.80;95.80;;;;;;5130576;27;20091;-67
2022/08/23 12:33:40;;;;;;;8.35;2.63;;;28.80;95.90;;;;;;5097837;27;20099;-67
2022/08/23 12:36:19;;;;;;;6.35;2.30;;;28.70;94.80;;;;;;5122498;27;20127;-67
2022/08/23 12:39:06;;;;;;;8.55;2.42;;;28.70;95.80;;;;;;5137090;27;20069;-67
2022/08/23 12:41:58;;;;;;;6.82;2.42;;;28.70;95.90;;;;;;5104695;27;20058;-68
2022/08/23 12:44:26;;;;;;;8.43;1.90;;;28.60;96.00;;;;;;5105530;27;20062;-67
2022/08/23 12:46:53;;;;;;;6.80;2.45;;;28.60;94.70;;;;;;5119863;27;20047;-67
2022/08/23 12:49:24;;;;;;;5.50;2.13;;;28.50;95.10;;;;;;5106584;27;20433;-67
2022/08/23 12:51:54;;;;;;;6.75;2.22;;;28.40;93.70;;;;;;5129797;27;20280;-68
2022/08/23 12:54:42;;;;;;;11.00;2.53;;;28.40;94.20;;;;;;5123364;27;20519;-67
2022/08/23 12:57:19;;;;;;;5.63;2.05;;;28.40;94.50;;;;;;5119804;27;20058;-67
2022/08/23 13:00:06;;;;;;;8.00;2.15;;;28.40;94.00;;;;;;5082732;27;20415;-67
2022/08/23 13:02:34;;;;;;;7.95;2.10;;;28.40;94.00;;;;;;5117239;27;20039;-67
2022/08/23 13:05:31;;;;;;;7.85;2.03;;;28.40;94.60;;;;;;5097471;27;20122;-66
2022/08/23 13:08:01;;;;;;;7.85;2.10;;;28.40;94.60;;;;;;5047622;27;20058;-68
2022/08/23 13:10:27;;;;;;;6.50;2.22;;;28.50;94.10;;;;;;5095782;27;20043;-67
2022/08/23 13:12:54;;;;;;;9.68;2.70;;;28.60;94.60;;;;;;5097181;27;20481;-67
2022/08/23 13:15:40;;;;;;;8.43;2.20;;;28.70;93.90;;;;;;5097440;27;20115;-67